Time;durP1;ratioP1;P1;durP2;ratioP2;P2;SDS_P1;SDS_P2;PMS_P1;PMS_P2;Temp;Humidity;BMP_temperature;BMP_pressure;BME280_temperature;BME280_humidity;BME280_pressure;Samples;Min_cycle;Max_cycle;Signal;HPM_P1;HPM_P2
2021/12/25 00:00:36;;;;;;;4.30;1.48;;;-0.40;99.90;;;;;;4980960;28;20058;-67
2021/12/25 00:03:02;;;;;;;3.33;1.60;;;-0.40;99.90;;;;;;4988507;28;20038;-67
2021/12/25 00:05:28;;;;;;;4.57;1.52;;;-0.40;99.90;;;;;;4989789;28;20157;-68
2021/12/25 00:07:54;;;;;;;5.22;1.58;;;-0.40;99.90;;;;;;4988516;28;20085;-68
2021/12/25 00:10:19;;;;;;;3.65;1.88;;;-0.40;99.90;;;;;;4989004;28;20045;-67
2021/12/25 00:12:45;;;;;;;4.93;1.90;;;-0.50;99.90;;;;;;4986809;28;20073;-68
2021/12/25 00:15:11;;;;;;;2.60;1.45;;;-0.50;99.90;;;;;;4988403;28;20415;-67
2021/12/25 00:17:36;;;;;;;1.58;1.25;;;-0.60;99.90;;;;;;4988513;28;20046;-68
2021/12/25 00:20:03;;;;;;;5.20;1.60;;;-0.60;99.90;;;;;;4988070;28;20116;-68
2021/12/25 00:22:29;;;;;;;3.38;1.48;;;-0.60;99.90;;;;;;4986528;28;20421;-68
2021/12/25 00:24:54;;;;;;;4.50;1.80;;;-0.60;99.90;;;;;;4988541;28;20043;-68
2021/12/25 00:28:18;;;;;;;3.53;1.80;;;-0.70;99.90;;;;;;4986921;28;20046;-68
2021/12/25 00:30:16;;;;;;;6.00;1.75;;;-0.70;99.90;;;;;;4981924;28;20130;-68
2021/12/25 00:32:52;;;;;;;4.70;1.73;;;-0.70;99.90;;;;;;4987052;28;20133;-68
2021/12/25 00:35:18;;;;;;;4.82;1.88;;;-0.80;99.90;;;;;;4987655;28;20069;-68
2021/12/25 00:37:44;;;;;;;3.28;1.63;;;-0.90;99.90;;;;;;4987017;28;20390;-68
2021/12/25 00:40:11;;;;;;;6.68;1.60;;;-0.90;99.90;;;;;;4987694;28;20042;-68
2021/12/25 00:42:36;;;;;;;4.43;1.70;;;-0.90;99.90;;;;;;4987210;28;20474;-68
2021/12/25 00:45:03;;;;;;;4.47;1.60;;;-0.90;99.90;;;;;;4988458;28;20160;-68
2021/12/25 00:47:29;;;;;;;4.45;1.90;;;-0.90;99.90;;;;;;4973131;28;20068;-68
2021/12/25 00:49:54;;;;;;;7.05;1.77;;;-1.00;99.90;;;;;;4971640;28;20182;-68
2021/12/25 00:52:20;;;;;;;5.13;1.80;;;-1.00;99.90;;;;;;4980916;28;20039;-68
2021/12/25 00:54:46;;;;;;;4.53;1.83;;;-1.10;99.90;;;;;;4986307;28;20038;-68
2021/12/25 00:57:11;;;;;;;4.15;1.70;;;-1.10;99.90;;;;;;4988204;28;20471;-68
2021/12/25 00:59:37;;;;;;;4.38;1.88;;;-1.10;99.90;;;;;;4986080;28;20053;-68
2021/12/25 01:02:03;;;;;;;6.78;2.15;;;-1.10;99.90;;;;;;4987335;28;20050;-68
2021/12/25 01:04:28;;;;;;;4.85;1.60;;;-1.10;99.90;;;;;;4987144;28;20121;-68
2021/12/25 01:06:54;;;;;;;3.35;1.50;;;-1.20;99.90;;;;;;4988064;28;20038;-68
2021/12/25 01:09:20;;;;;;;6.13;1.75;;;-1.20;99.90;;;;;;4987895;28;20027;-68
2021/12/25 01:11:48;;;;;;;2.97;1.58;;;-1.20;99.90;;;;;;4987585;28;20047;-68
2021/12/25 01:14:39;;;;;;;3.45;1.48;;;-1.30;99.90;;;;;;4986750;28;20050;-68
2021/12/25 01:20:14;;;;;;;3.95;1.50;;;-1.40;99.90;;;;;;4991101;28;20047;-69
2021/12/25 01:30:43;;;;;;;2.75;1.45;;;-1.60;99.90;;;;;;4987220;28;20054;-68
2021/12/25 01:33:28;;;;;;;3.80;1.55;;;-1.60;99.90;;;;;;4990968;28;20147;-68
2021/12/25 01:41:27;;;;;;;4.28;1.40;;;-1.80;99.90;;;;;;4993579;28;20073;-68
2021/12/25 01:49:21;;;;;;;3.65;1.65;;;-1.80;99.90;;;;;;4991559;28;20085;-68
2021/12/25 01:51:47;;;;;;;2.22;1.40;;;-1.80;99.90;;;;;;4991658;28;20510;-68
2021/12/25 01:54:13;;;;;;;4.32;1.45;;;-1.80;99.90;;;;;;4989870;28;20053;-68
2021/12/25 01:56:39;;;;;;;2.72;1.60;;;-1.80;99.90;;;;;;4991095;28;20051;-68
2021/12/25 01:59:04;;;;;;;3.33;1.40;;;-1.80;99.90;;;;;;4989327;28;20042;-68
2021/12/25 02:01:30;;;;;;;2.92;1.58;;;-1.80;99.90;;;;;;4981918;28;20069;-68
2021/12/25 02:03:56;;;;;;;4.90;1.45;;;-1.80;99.90;;;;;;4992916;28;20031;-67
2021/12/25 02:06:21;;;;;;;2.75;1.40;;;-1.90;99.90;;;;;;4988113;28;20136;-67
2021/12/25 02:08:47;;;;;;;2.17;1.38;;;-1.90;99.90;;;;;;4990765;28;20046;-68
2021/12/25 02:11:13;;;;;;;2.95;1.48;;;-1.90;99.90;;;;;;4989049;28;20050;-68
2021/12/25 02:13:40;;;;;;;1.30;1.20;;;-1.90;99.90;;;;;;4989095;28;20110;-68
2021/12/25 02:16:12;;;;;;;3.70;1.60;;;-1.90;99.90;;;;;;4991481;28;20057;-68
2021/12/25 02:21:27;;;;;;;2.15;1.20;;;-1.90;99.90;;;;;;4991160;28;20054;-68
2021/12/25 02:23:54;;;;;;;2.78;1.40;;;-2.00;99.90;;;;;;4991904;28;20069;-68
2021/12/25 02:26:21;;;;;;;2.25;1.40;;;-2.00;99.90;;;;;;4990509;28;20405;-69
2021/12/25 02:28:47;;;;;;;2.22;1.30;;;-2.10;99.90;;;;;;4987149;28;20046;-68
2021/12/25 02:31:15;;;;;;;4.03;1.52;;;-2.10;99.90;;;;;;4988902;28;20042;-68
2021/12/25 02:33:41;;;;;;;1.88;1.38;;;-2.20;99.90;;;;;;4990717;28;20046;-69
2021/12/25 02:36:09;;;;;;;2.17;1.30;;;-2.20;99.90;;;;;;4989118;28;20469;-68
2021/12/25 02:38:35;;;;;;;1.40;1.30;;;-2.20;99.90;;;;;;4988483;28;20129;-68
2021/12/25 02:41:02;;;;;;;3.10;1.38;;;-2.20;99.90;;;;;;4990656;28;20112;-68
2021/12/25 02:43:27;;;;;;;1.60;1.45;;;-2.30;99.90;;;;;;4987724;28;20053;-68
2021/12/25 02:45:55;;;;;;;2.50;1.40;;;-2.00;99.90;;;;;;4990454;28;20366;-69
2021/12/25 02:48:22;;;;;;;1.50;1.30;;;-1.80;99.90;;;;;;4990326;28;20054;-68
2021/12/25 02:50:49;;;;;;;2.70;1.30;;;-2.60;99.90;;;;;;4985598;28;20046;-69
2021/12/25 02:53:15;;;;;;;2.20;1.30;;;-2.30;99.90;;;;;;4970790;28;20079;-68
2021/12/25 02:55:42;;;;;;;2.20;1.30;;;-2.30;99.90;;;;;;4990241;28;20502;-68
2021/12/25 02:58:09;;;;;;;1.48;1.30;;;-2.30;99.90;;;;;;4989274;28;20049;-67
2021/12/25 03:00:45;;;;;;;1.60;1.30;;;-2.30;99.90;;;;;;4990688;28;20424;-68
2021/12/25 03:03:11;;;;;;;2.55;1.30;;;-2.30;99.90;;;;;;4989983;28;20074;-67
2021/12/25 03:05:37;;;;;;;2.10;1.40;;;-2.70;99.90;;;;;;4990145;28;20034;-68
2021/12/25 03:08:04;;;;;;;1.55;1.30;;;-2.40;99.90;;;;;;4988349;28;20050;-68
2021/12/25 03:10:33;;;;;;;2.58;1.35;;;-2.40;99.90;;;;;;4987764;28;20046;-68
2021/12/25 03:13:19;;;;;;;1.67;1.30;;;-2.40;99.90;;;;;;4989613;28;20046;-67
2021/12/25 03:15:47;;;;;;;2.37;1.40;;;-2.40;99.90;;;;;;4988523;28;20073;-67
2021/12/25 03:18:21;;;;;;;1.85;1.60;;;-2.40;99.90;;;;;;4988396;28;20045;-68
2021/12/25 03:20:51;;;;;;;2.53;1.40;;;-2.50;99.90;;;;;;4971015;28;20063;-67
2021/12/25 03:23:20;;;;;;;1.83;1.35;;;-2.50;99.90;;;;;;4969581;28;20190;-68
2021/12/25 03:25:48;;;;;;;1.70;1.20;;;-2.50;99.90;;;;;;4989660;28;20046;-68
2021/12/25 03:28:18;;;;;;;2.45;1.30;;;-2.50;99.90;;;;;;4988122;28;20042;-68
2021/12/25 03:30:44;;;;;;;4.63;1.60;;;-2.60;99.90;;;;;;4988411;28;20177;-68
2021/12/25 03:33:13;;;;;;;1.70;1.60;;;-2.70;99.90;;;;;;4989397;28;20046;-67
2021/12/25 03:35:39;;;;;;;1.83;1.48;;;-2.80;99.90;;;;;;4989768;28;20257;-68
2021/12/25 03:38:07;;;;;;;1.98;1.25;;;-2.80;99.90;;;;;;4988255;28;20062;-67
2021/12/25 03:40:33;;;;;;;2.28;1.50;;;-2.80;99.90;;;;;;4989157;28;20053;-68
2021/12/25 03:43:00;;;;;;;4.57;1.40;;;-2.80;99.90;;;;;;4988858;28;20105;-68
2021/12/25 03:45:29;;;;;;;2.13;1.40;;;-1.40;99.90;;;;;;4988098;28;20034;-67
2021/12/25 03:48:05;;;;;;;1.50;1.38;;;-2.80;99.90;;;;;;4988204;28;20086;-67
2021/12/25 03:53:35;;;;;;;6.13;1.45;;;-2.80;99.90;;;;;;4987425;28;20050;-68
2021/12/25 03:58:46;;;;;;;2.20;1.20;;;-3.10;99.90;;;;;;4989127;28;20058;-67
2021/12/25 04:04:43;;;;;;;1.45;1.33;;;-2.90;99.90;;;;;;4984523;28;20050;-68
2021/12/25 04:06:53;;;;;;;2.72;1.45;;;-2.90;99.90;;;;;;4985747;28;20046;-68
2021/12/25 04:09:27;;;;;;;2.40;1.55;;;-2.90;99.90;;;;;;4986898;28;20042;-67
2021/12/25 04:11:55;;;;;;;2.20;1.40;;;-2.90;99.90;;;;;;4988748;28;20042;-68
2021/12/25 04:14:21;;;;;;;2.55;1.40;;;-3.00;99.90;;;;;;4987608;28;20053;-68
2021/12/25 04:16:47;;;;;;;1.40;1.30;;;-3.00;99.90;;;;;;4989209;28;20046;-67
2021/12/25 04:19:13;;;;;;;1.50;1.40;;;-3.10;99.90;;;;;;4987144;28;20065;-68
2021/12/25 04:21:48;;;;;;;1.40;1.30;;;-3.10;99.90;;;;;;4982459;28;20456;-68
2021/12/25 04:24:14;;;;;;;1.60;1.30;;;-3.10;99.90;;;;;;4987529;28;20046;-68
2021/12/25 04:26:42;;;;;;;2.17;1.50;;;-3.10;99.90;;;;;;4989074;28;20439;-67
2021/12/25 04:42:52;;;;;;;2.63;1.40;;;-3.30;99.90;;;;;;4987031;28;20047;-68
2021/12/25 04:48:56;;;;;;;2.70;1.55;;;-3.40;99.90;;;;;;4988652;28;20061;-68
2021/12/25 05:04:18;;;;;;;2.55;1.40;;;-3.50;99.90;;;;;;4989866;28;20042;-69
2021/12/25 05:06:44;;;;;;;1.73;1.33;;;-3.50;99.90;;;;;;4992038;28;20543;-68
2021/12/25 05:09:10;;;;;;;2.95;1.60;;;-3.50;99.90;;;;;;4993419;28;20113;-68
2021/12/25 05:11:35;;;;;;;1.83;1.38;;;-3.60;99.90;;;;;;4991406;28;20093;-68
2021/12/25 05:14:01;;;;;;;4.20;1.42;;;-3.60;99.90;;;;;;4991554;28;20070;-68
2021/12/25 05:16:27;;;;;;;2.50;1.50;;;-3.60;99.90;;;;;;4989904;28;20101;-68
2021/12/25 05:18:53;;;;;;;2.25;1.63;;;-3.00;99.90;;;;;;4993618;28;20105;-68
2021/12/25 05:21:20;;;;;;;4.82;1.60;;;-2.60;99.90;;;;;;4991520;28;20447;-69
2021/12/25 05:23:47;;;;;;;2.53;1.33;;;-3.50;99.90;;;;;;4991360;28;20057;-68
2021/12/25 05:26:13;;;;;;;4.07;1.40;;;-3.50;99.90;;;;;;4991808;28;20042;-68
2021/12/25 05:28:41;;;;;;;2.92;1.30;;;-3.10;99.90;;;;;;4990037;28;20115;-68
2021/12/25 05:31:08;;;;;;;1.67;1.42;;;-3.50;99.90;;;;;;4990972;28;20043;-69
2021/12/25 05:33:34;;;;;;;2.58;1.58;;;-3.10;99.90;;;;;;4991654;28;20522;-68
2021/12/25 05:36:00;;;;;;;2.13;1.60;;;-3.60;99.90;;;;;;4990910;28;20050;-68
2021/12/25 05:38:26;;;;;;;1.92;1.42;;;-3.60;99.90;;;;;;4989604;28;20042;-68
2021/12/25 05:40:52;;;;;;;5.40;1.65;;;-3.00;99.90;;;;;;4992423;28;20223;-68
2021/12/25 05:43:18;;;;;;;2.53;1.50;;;-3.60;99.90;;;;;;4989053;28;20042;-68
2021/12/25 05:45:44;;;;;;;3.00;1.40;;;-3.60;99.90;;;;;;4990133;28;20448;-68
2021/12/25 05:48:10;;;;;;;2.80;1.60;;;-3.60;99.90;;;;;;4981800;28;20034;-67
2021/12/25 05:50:36;;;;;;;2.20;1.40;;;-2.70;99.90;;;;;;4990930;28;20090;-67
2021/12/25 05:53:02;;;;;;;2.90;1.33;;;-3.60;99.90;;;;;;4986356;28;20144;-68
2021/12/25 05:55:28;;;;;;;1.45;1.33;;;-3.60;99.90;;;;;;4990283;28;20049;-68
2021/12/25 05:57:54;;;;;;;2.88;1.60;;;-3.70;99.90;;;;;;4990996;28;20470;-68
2021/12/25 06:00:20;;;;;;;1.90;1.55;;;-3.70;99.90;;;;;;4990525;28;20453;-68
2021/12/25 06:02:46;;;;;;;2.65;1.30;;;-3.60;99.90;;;;;;4990904;28;20038;-68
2021/12/25 06:05:12;;;;;;;2.63;1.73;;;-3.60;99.90;;;;;;4989910;28;20536;-68
2021/12/25 06:07:38;;;;;;;2.42;1.60;;;-3.60;99.90;;;;;;4989114;28;20078;-68
2021/12/25 06:10:08;;;;;;;2.88;1.73;;;-3.60;99.90;;;;;;4991291;28;20076;-68
2021/12/25 06:12:35;;;;;;;2.40;1.67;;;-3.50;99.90;;;;;;4990222;28;20050;-69
2021/12/25 06:15:01;;;;;;;2.95;1.48;;;-3.60;99.90;;;;;;4989856;28;20089;-67
2021/12/25 06:17:27;;;;;;;3.42;1.40;;;-3.50;99.90;;;;;;4989385;28;20054;-67
2021/12/25 06:19:53;;;;;;;3.63;1.50;;;-3.30;99.90;;;;;;4990674;28;20086;-67
2021/12/25 06:22:19;;;;;;;3.05;1.48;;;-3.50;99.90;;;;;;4990427;28;20093;-68
2021/12/25 06:24:49;;;;;;;2.80;1.33;;;-3.50;99.90;;;;;;4990443;28;20070;-68
2021/12/25 06:27:19;;;;;;;4.63;1.40;;;-3.50;99.90;;;;;;4972897;28;20050;-68
2021/12/25 06:29:45;;;;;;;7.90;1.60;;;-3.50;99.90;;;;;;4989796;28;20096;-67
2021/12/25 06:32:11;;;;;;;3.72;1.63;;;-3.00;99.90;;;;;;4991111;28;20086;-68
2021/12/25 06:34:37;;;;;;;2.92;1.40;;;-3.60;99.90;;;;;;4988134;28;20049;-68
2021/12/25 06:37:03;;;;;;;3.05;1.48;;;-3.00;99.90;;;;;;4984394;28;20042;-67
2021/12/25 06:39:30;;;;;;;3.97;1.52;;;-3.00;99.90;;;;;;4989657;28;20414;-68
2021/12/25 06:41:56;;;;;;;2.00;1.40;;;-3.60;99.90;;;;;;4990363;28;20457;-68
2021/12/25 06:44:24;;;;;;;4.00;1.40;;;-3.60;99.90;;;;;;4989919;28;20074;-68
2021/12/25 06:46:51;;;;;;;4.25;1.65;;;-3.60;99.90;;;;;;4989212;28;20602;-68
2021/12/25 06:49:19;;;;;;;3.25;1.30;;;-3.50;99.90;;;;;;4988092;28;20047;-68
2021/12/25 06:51:44;;;;;;;1.50;1.30;;;-3.60;99.90;;;;;;4988502;28;20065;-67
2021/12/25 06:54:10;;;;;;;2.20;1.27;;;-3.60;99.90;;;;;;4990908;28;20038;-67
2021/12/25 06:56:35;;;;;;;2.95;1.60;;;-3.70;99.90;;;;;;4987897;28;20046;-67
2021/12/25 06:59:02;;;;;;;4.47;1.50;;;-3.70;99.90;;;;;;4989691;28;20042;-68
2021/12/25 07:01:27;;;;;;;3.20;1.40;;;-3.70;99.90;;;;;;4989874;28;20053;-67
2021/12/25 07:03:53;;;;;;;2.33;2.13;;;-3.70;99.90;;;;;;4989431;28;20053;-67
2021/12/25 07:06:21;;;;;;;1.83;1.40;;;-3.20;99.90;;;;;;4989207;28;20042;-68
2021/12/25 07:08:47;;;;;;;4.60;1.58;;;-3.70;99.90;;;;;;4987949;28;20371;-68
2021/12/25 07:11:13;;;;;;;2.35;1.50;;;-3.70;99.90;;;;;;4986306;28;20042;-68
2021/12/25 07:13:43;;;;;;;2.60;1.65;;;-3.80;99.90;;;;;;4974717;28;20129;-68
2021/12/25 07:16:09;;;;;;;5.30;1.50;;;-3.80;99.90;;;;;;4989340;28;20559;-68
2021/12/25 07:18:35;;;;;;;2.03;1.20;;;-3.80;99.90;;;;;;4988154;28;20512;-68
2021/12/25 07:21:01;;;;;;;2.40;1.33;;;-3.40;99.90;;;;;;4989345;28;20054;-68
2021/12/25 07:23:27;;;;;;;4.30;1.50;;;-3.80;99.90;;;;;;4988733;28;20124;-68
2021/12/25 07:25:52;;;;;;;3.83;1.70;;;-3.90;99.90;;;;;;4992604;28;20561;-68
2021/12/25 07:28:18;;;;;;;2.13;1.60;;;-3.70;99.90;;;;;;4989687;28;20042;-67
2021/12/25 07:30:44;;;;;;;2.67;1.42;;;-2.70;99.90;;;;;;4987937;28;20050;-68
2021/12/25 07:33:10;;;;;;;2.80;1.50;;;-4.00;99.90;;;;;;4989074;28;20430;-68
2021/12/25 07:35:36;;;;;;;4.82;1.80;;;-4.00;99.90;;;;;;4989251;28;20050;-67
2021/12/25 07:38:01;;;;;;;6.18;1.67;;;-4.00;99.90;;;;;;4987975;28;20050;-69
2021/12/25 07:40:27;;;;;;;5.70;1.77;;;-4.00;99.90;;;;;;4988978;28;20188;-67
2021/12/25 07:42:54;;;;;;;3.00;1.50;;;-4.10;99.90;;;;;;4987984;28;20152;-69
2021/12/25 07:45:21;;;;;;;4.22;1.65;;;-4.10;99.90;;;;;;4988027;28;20498;-67
2021/12/25 07:47:55;;;;;;;2.88;1.60;;;-4.00;99.90;;;;;;4989377;28;20132;-67
2021/12/25 07:50:22;;;;;;;2.58;1.63;;;-3.50;99.90;;;;;;4988966;28;20486;-70
2021/12/25 07:52:48;;;;;;;5.97;1.60;;;-3.80;99.90;;;;;;4987236;28;20065;-70
2021/12/25 07:55:15;;;;;;;3.95;1.50;;;-4.10;99.90;;;;;;4988851;28;20380;-70
2021/12/25 07:57:40;;;;;;;1.88;1.40;;;-4.10;99.90;;;;;;5004252;28;20161;-67
2021/12/25 08:00:09;;;;;;;3.60;1.95;;;-4.10;99.90;;;;;;4987429;28;20161;-67
2021/12/25 08:02:35;;;;;;;3.97;1.80;;;-4.10;99.90;;;;;;4986977;28;20463;-70
2021/12/25 08:05:00;;;;;;;3.85;1.70;;;-4.20;99.90;;;;;;4988795;28;20097;-70
2021/12/25 08:07:26;;;;;;;3.03;1.75;;;-4.10;99.90;;;;;;4986357;28;20073;-67
2021/12/25 08:09:57;;;;;;;3.20;1.67;;;-3.80;99.90;;;;;;4987525;28;20050;-67
2021/12/25 08:12:22;;;;;;;4.47;1.58;;;-4.10;99.90;;;;;;4983827;28;20392;-70
2021/12/25 08:14:48;;;;;;;4.85;2.08;;;-4.10;99.90;;;;;;4988969;28;20034;-70
2021/12/25 08:17:13;;;;;;;4.43;1.80;;;-4.10;99.90;;;;;;4987460;28;20084;-67
2021/12/25 08:19:40;;;;;;;5.30;1.83;;;-4.20;99.90;;;;;;4987330;28;20046;-67
2021/12/25 08:22:06;;;;;;;2.80;1.73;;;-4.40;99.90;;;;;;4988900;28;20054;-67
2021/12/25 08:24:31;;;;;;;5.10;1.67;;;-4.20;99.90;;;;;;4987072;28;20038;-70
2021/12/25 08:27:04;;;;;;;2.22;1.73;;;-4.20;99.90;;;;;;4987572;28;20054;-68
2021/12/25 08:29:31;;;;;;;4.60;2.00;;;-4.10;99.90;;;;;;4986076;28;20042;-68
2021/12/25 08:31:57;;;;;;;7.43;1.63;;;-3.60;99.90;;;;;;4990057;28;20117;-68
2021/12/25 08:34:23;;;;;;;5.72;2.15;;;-4.10;99.90;;;;;;4972917;28;20137;-68
2021/12/25 08:36:49;;;;;;;2.38;1.65;;;-4.10;99.90;;;;;;4988698;28;20526;-68
2021/12/25 08:39:14;;;;;;;2.42;1.50;;;-4.10;99.90;;;;;;4986731;28;20046;-68
2021/12/25 08:41:40;;;;;;;4.57;1.63;;;-4.00;99.90;;;;;;4987855;28;20120;-68
2021/12/25 08:44:30;;;;;;;1.88;1.52;;;-4.00;99.90;;;;;;4987631;28;20038;-68
2021/12/25 08:46:56;;;;;;;3.97;1.60;;;-4.00;99.90;;;;;;4987188;28;20484;-68
2021/12/25 08:49:25;;;;;;;3.10;1.67;;;-3.80;99.90;;;;;;4986967;28;20324;-68
2021/12/25 08:51:51;;;;;;;4.18;1.60;;;-3.80;99.90;;;;;;4988987;28;20105;-68
2021/12/25 08:54:17;;;;;;;3.10;1.60;;;-3.80;99.90;;;;;;4987456;28;20050;-68
2021/12/25 08:56:43;;;;;;;2.70;1.60;;;-3.70;99.90;;;;;;4987785;28;20522;-68
2021/12/25 08:59:09;;;;;;;3.08;1.70;;;-3.70;99.90;;;;;;4987109;28;20061;-68
2021/12/25 09:01:35;;;;;;;2.88;1.60;;;-3.60;99.90;;;;;;4975202;28;20058;-68
2021/12/25 09:04:01;;;;;;;2.53;1.60;;;-3.60;99.90;;;;;;4987432;28;20046;-68
2021/12/25 09:06:27;;;;;;;3.13;1.60;;;-3.50;99.90;;;;;;4986480;28;20431;-68
2021/12/25 09:08:53;;;;;;;2.08;1.45;;;-3.40;99.90;;;;;;4987034;28;20062;-68
2021/12/25 09:11:20;;;;;;;2.80;1.60;;;-3.30;99.90;;;;;;4986174;28;20062;-69
2021/12/25 09:13:46;;;;;;;3.40;1.55;;;-3.20;99.90;;;;;;4988080;28;20457;-68
2021/12/25 09:16:12;;;;;;;2.60;1.60;;;-3.00;99.90;;;;;;4989822;28;20100;-68
2021/12/25 09:18:38;;;;;;;3.20;1.75;;;-2.90;99.90;;;;;;4987431;28;20055;-68
2021/12/25 09:21:03;;;;;;;3.45;1.45;;;-2.80;99.90;;;;;;4985300;28;20136;-68
2021/12/25 09:23:29;;;;;;;2.05;1.50;;;-2.60;99.90;;;;;;4987108;28;20157;-68
2021/12/25 09:25:55;;;;;;;3.17;1.60;;;-1.20;99.90;;;;;;4988604;28;20070;-69
2021/12/25 09:28:20;;;;;;;3.72;1.52;;;1.10;99.90;;;;;;4985194;28;20486;-68
2021/12/25 09:30:46;;;;;;;5.80;1.60;;;2.30;99.90;;;;;;4987365;28;20340;-69
2021/12/25 09:33:12;;;;;;;5.03;2.55;;;3.40;99.90;;;;;;4987874;28;20042;-68
2021/12/25 09:35:37;;;;;;;2.17;1.40;;;4.90;99.90;;;;;;4987123;28;20105;-66
2021/12/25 09:38:04;;;;;;;3.10;1.58;;;5.50;98.50;;;;;;4988935;28;20096;-66
2021/12/25 09:40:30;;;;;;;1.85;1.45;;;5.50;97.90;;;;;;4991798;28;20089;-66
2021/12/25 09:42:55;;;;;;;4.80;1.90;;;6.20;95.40;;;;;;4989914;28;20050;-66
2021/12/25 09:45:22;;;;;;;4.38;1.55;;;6.60;95.20;;;;;;4991318;28;20082;-67
2021/12/25 09:47:48;;;;;;;2.33;1.50;;;6.30;96.60;;;;;;4993639;28;20046;-66
2021/12/25 09:50:14;;;;;;;2.88;1.50;;;6.80;95.10;;;;;;4990988;28;20057;-67
2021/12/25 09:52:42;;;;;;;2.28;1.73;;;7.00;94.30;;;;;;4989109;28;20057;-67
2021/12/25 09:55:09;;;;;;;2.95;1.60;;;6.80;93.80;;;;;;4991107;28;20439;-67
2021/12/25 09:57:36;;;;;;;4.20;1.50;;;6.50;94.10;;;;;;4991950;28;20042;-66
2021/12/25 10:00:15;;;;;;;3.38;1.48;;;6.70;93.40;;;;;;4994495;28;20487;-66
2021/12/25 10:02:45;;;;;;;3.42;1.40;;;6.70;91.10;;;;;;4989960;28;20046;-66
2021/12/25 10:05:11;;;;;;;4.53;1.73;;;6.90;91.30;;;;;;4991755;28;20482;-66
2021/12/25 10:07:37;;;;;;;5.55;1.65;;;6.20;92.30;;;;;;4989876;28;20053;-66
2021/12/25 10:10:13;;;;;;;4.80;1.70;;;6.30;93.30;;;;;;4990636;28;20052;-66
2021/12/25 10:12:45;;;;;;;3.28;1.42;;;6.20;90.90;;;;;;4990330;28;20080;-67
2021/12/25 10:15:14;;;;;;;4.15;1.52;;;5.60;92.90;;;;;;4992373;28;20430;-67
2021/12/25 10:17:59;;;;;;;5.03;1.73;;;5.50;94.40;;;;;;4989993;28;20116;-67
2021/12/25 10:20:31;;;;;;;2.58;1.30;;;5.80;94.30;;;;;;4989258;28;20065;-67
2021/12/25 10:23:08;;;;;;;4.78;1.50;;;6.10;93.40;;;;;;4990478;28;20050;-67
2021/12/25 10:25:43;;;;;;;5.22;1.70;;;6.00;95.00;;;;;;4988470;28;20038;-67
2021/12/25 10:28:09;;;;;;;2.85;1.40;;;5.80;94.30;;;;;;4981729;28;20069;-67
2021/12/25 10:30:48;;;;;;;2.38;1.20;;;6.30;93.80;;;;;;4975067;28;20089;-67
2021/12/25 10:33:30;;;;;;;4.05;1.42;;;6.80;92.50;;;;;;4990099;28;20054;-67
2021/12/25 10:36:00;;;;;;;4.55;1.50;;;7.10;92.00;;;;;;4989460;28;20046;-67
2021/12/25 10:38:28;;;;;;;3.70;1.60;;;7.00;90.20;;;;;;4987475;28;20101;-67
2021/12/25 10:41:19;;;;;;;3.42;1.70;;;7.30;91.90;;;;;;4991710;28;20125;-67
2021/12/25 10:43:47;;;;;;;4.05;1.48;;;7.80;89.10;;;;;;4978066;28;20043;-67
2021/12/25 10:46:13;;;;;;;4.88;1.40;;;8.20;89.50;;;;;;4989404;28;20054;-67
2021/12/25 10:48:39;;;;;;;5.50;1.30;;;8.30;86.00;;;;;;4991322;28;20042;-67
2021/12/25 10:51:05;;;;;;;3.55;1.60;;;8.30;81.40;;;;;;4988405;28;20072;-67
2021/12/25 10:53:41;;;;;;;3.55;1.48;;;8.90;81.20;;;;;;4986624;28;20046;-67
2021/12/25 10:56:15;;;;;;;3.15;1.50;;;9.00;76.10;;;;;;4990771;28;20077;-67
2021/12/25 10:58:42;;;;;;;3.28;1.40;;;9.20;74.70;;;;;;4990942;28;20490;-67
2021/12/25 11:01:12;;;;;;;2.45;1.42;;;9.40;70.20;;;;;;4988126;28;20042;-67
2021/12/25 11:03:41;;;;;;;2.83;1.38;;;9.40;69.30;;;;;;4990180;28;20077;-67
2021/12/25 11:06:10;;;;;;;5.00;1.85;;;10.40;70.00;;;;;;4988362;28;20511;-67
2021/12/25 11:08:37;;;;;;;3.60;1.50;;;11.80;70.10;;;;;;4991107;28;20389;-67
2021/12/25 11:11:18;;;;;;;4.15;1.40;;;13.10;59.00;;;;;;4988458;28;20445;-67
2021/12/25 11:13:50;;;;;;;3.75;1.40;;;14.00;58.60;;;;;;4988139;28;20169;-67
2021/12/25 11:16:27;;;;;;;3.10;1.50;;;14.30;55.40;;;;;;4989340;28;20046;-68
2021/12/25 11:21:36;;;;;;;2.85;1.40;;;15.60;50.80;;;;;;4979195;28;20052;-73
2021/12/25 11:24:05;;;;;;;2.88;1.60;;;16.50;48.70;;;;;;4986557;28;20089;-73
2021/12/25 11:26:32;;;;;;;6.28;1.60;;;17.00;48.50;;;;;;4985984;28;20046;-72
2021/12/25 11:28:57;;;;;;;3.28;1.20;;;17.20;45.70;;;;;;4984762;28;20057;-73
2021/12/25 11:31:23;;;;;;;4.03;1.30;;;17.10;45.90;;;;;;4986284;28;20472;-72
2021/12/25 11:33:50;;;;;;;3.97;1.67;;;16.90;46.40;;;;;;4986637;28;20047;-73
2021/12/25 11:36:17;;;;;;;5.18;1.50;;;17.60;43.60;;;;;;4983670;28;20057;-72
2021/12/25 11:38:43;;;;;;;3.45;1.58;;;18.00;42.70;;;;;;4984970;28;20117;-73
2021/12/25 11:41:12;;;;;;;3.22;1.40;;;18.30;42.60;;;;;;4985113;28;20105;-73
2021/12/25 11:43:45;;;;;;;3.17;1.73;;;18.60;42.10;;;;;;4983847;28;20058;-73
2021/12/25 11:46:12;;;;;;;3.13;1.50;;;18.40;40.90;;;;;;4986115;28;20482;-72
2021/12/25 11:48:39;;;;;;;3.65;1.60;;;17.50;41.90;;;;;;4985654;28;20042;-72
2021/12/25 11:51:06;;;;;;;4.07;1.30;;;18.00;42.30;;;;;;4980164;28;20042;-72
2021/12/25 11:54:04;;;;;;;3.25;1.40;;;18.80;41.50;;;;;;4983983;28;20050;-73
2021/12/25 11:56:44;;;;;;;3.75;1.70;;;19.30;41.10;;;;;;4984383;28;20069;-73
2021/12/25 11:59:17;;;;;;;4.05;1.80;;;20.40;40.00;;;;;;4985634;28;20046;-73
2021/12/25 12:01:48;;;;;;;5.32;1.60;;;20.00;40.80;;;;;;4986152;28;20061;-73
2021/12/25 12:04:24;;;;;;;6.63;1.42;;;20.10;40.90;;;;;;4966909;28;20046;-74
2021/12/25 12:07:08;;;;;;;3.45;1.60;;;20.20;39.60;;;;;;4971177;28;20061;-68
2021/12/25 12:09:56;;;;;;;5.20;1.73;;;20.60;39.00;;;;;;4987756;28;20042;-68
2021/12/25 12:12:24;;;;;;;6.65;1.73;;;21.00;37.10;;;;;;5003890;28;20054;-68
2021/12/25 12:15:08;;;;;;;3.45;1.55;;;21.20;38.30;;;;;;4989341;28;20505;-68
2021/12/25 12:17:36;;;;;;;4.28;1.50;;;21.30;37.10;;;;;;4988415;28;20042;-69
2021/12/25 12:20:05;;;;;;;2.85;1.50;;;20.10;38.30;;;;;;4987429;28;20054;-68
2021/12/25 12:22:44;;;;;;;3.25;1.45;;;19.50;38.10;;;;;;4970992;28;20050;-72
2021/12/25 12:25:25;;;;;;;4.75;1.65;;;18.90;40.20;;;;;;4988549;28;20054;-73
2021/12/25 12:27:58;;;;;;;3.88;1.60;;;18.90;39.50;;;;;;4988464;28;20141;-72
2021/12/25 12:30:36;;;;;;;2.83;1.65;;;19.00;39.20;;;;;;4987350;28;20050;-69
2021/12/25 12:33:19;;;;;;;6.13;1.70;;;18.80;39.40;;;;;;4988540;28;20446;-69
2021/12/25 12:35:47;;;;;;;3.40;1.42;;;19.00;38.10;;;;;;4989095;28;20064;-68
2021/12/25 12:38:40;;;;;;;3.90;1.73;;;18.50;37.60;;;;;;4986595;28;20042;-68
2021/12/25 12:41:38;;;;;;;3.00;1.60;;;18.10;38.00;;;;;;4983311;28;20077;-68
2021/12/25 12:44:11;;;;;;;3.83;1.50;;;17.70;39.30;;;;;;4983719;28;20065;-68
2021/12/25 12:46:53;;;;;;;4.32;1.60;;;18.40;38.60;;;;;;4985997;28;20042;-68
2021/12/25 12:49:23;;;;;;;4.18;1.63;;;18.50;37.50;;;;;;4986170;28;20069;-68
2021/12/25 12:52:25;;;;;;;3.38;1.48;;;18.50;37.10;;;;;;4985995;28;20046;-68
2021/12/25 12:55:35;;;;;;;3.30;1.38;;;18.40;37.80;;;;;;4985822;28;20054;-69
2021/12/25 13:01:42;;;;;;;3.55;1.50;;;16.30;38.80;;;;;;4988054;28;20395;-68
2021/12/25 13:04:08;;;;;;;2.78;1.50;;;15.20;40.80;;;;;;4987351;28;20046;-68
2021/12/25 13:06:33;;;;;;;6.13;1.67;;;15.00;41.00;;;;;;4985599;28;20054;-68
2021/12/25 13:09:03;;;;;;;3.75;1.60;;;15.00;41.20;;;;;;4990563;28;20038;-68
2021/12/25 13:11:37;;;;;;;7.30;1.50;;;15.10;40.90;;;;;;4986172;28;20058;-68
2021/12/25 13:14:04;;;;;;;4.55;1.65;;;15.00;40.90;;;;;;4989686;28;20057;-68
2021/12/25 13:16:43;;;;;;;5.95;2.17;;;14.90;41.00;;;;;;4992081;28;20058;-68
2021/12/25 13:19:09;;;;;;;2.83;1.60;;;13.80;41.50;;;;;;4991887;28;20522;-68
2021/12/25 13:21:35;;;;;;;3.95;1.60;;;12.20;43.90;;;;;;4990275;28;20085;-67
2021/12/25 13:24:08;;;;;;;6.43;1.70;;;10.60;45.60;;;;;;4992103;28;20487;-68
2021/12/25 13:26:37;;;;;;;3.47;1.55;;;9.20;47.80;;;;;;4971063;28;20054;-68
2021/12/25 13:29:10;;;;;;;2.90;1.40;;;8.10;50.50;;;;;;4984950;28;20399;-68
2021/12/25 13:31:40;;;;;;;5.65;1.45;;;7.20;53.20;;;;;;4979182;28;20049;-67
2021/12/25 13:34:18;;;;;;;4.53;1.73;;;6.60;56.00;;;;;;4984785;28;20046;-67
2021/12/25 13:36:54;;;;;;;5.90;1.70;;;5.90;59.60;;;;;;4989501;28;20043;-67
2021/12/25 13:39:27;;;;;;;3.92;1.70;;;5.40;62.30;;;;;;4982331;28;20112;-67
2021/12/25 13:42:11;;;;;;;4.55;1.90;;;5.10;66.20;;;;;;4968486;28;20082;-67
2021/12/25 13:44:39;;;;;;;4.63;1.80;;;4.70;68.60;;;;;;4991381;28;20125;-67
2021/12/25 13:47:05;;;;;;;3.55;1.70;;;4.50;71.80;;;;;;4985133;28;20042;-68
2021/12/25 13:49:45;;;;;;;5.05;1.70;;;4.20;73.70;;;;;;4980000;28;20510;-69
2021/12/25 13:52:20;;;;;;;3.92;1.80;;;3.90;77.40;;;;;;4983348;28;20038;-67
2021/12/25 13:54:58;;;;;;;3.22;1.63;;;3.70;80.90;;;;;;4988971;28;20050;-67
2021/12/25 13:57:25;;;;;;;5.47;1.85;;;3.50;84.00;;;;;;4989785;28;20054;-68
2021/12/25 13:59:58;;;;;;;4.15;1.70;;;3.50;86.60;;;;;;4990658;28;20607;-67
2021/12/25 14:02:25;;;;;;;3.85;1.80;;;3.20;88.50;;;;;;4988375;28;20042;-67
2021/12/25 14:04:52;;;;;;;4.60;1.70;;;2.90;90.50;;;;;;4983740;28;20046;-68
2021/12/25 14:07:23;;;;;;;4.65;2.20;;;2.70;92.10;;;;;;4984407;28;20117;-68